Time;durP1;ratioP1;P1;durP2;ratioP2;P2;SDS_P1;SDS_P2;PMS_P1;PMS_P2;Temp;Humidity;BMP_temperature;BMP_pressure;BME280_temperature;BME280_humidity;BME280_pressure;Samples;Min_cycle;Max_cycle;Signal;HPM_P1;HPM_P2
2023/08/23 00:04:21;;;;;;;22.95;6.05;;;;;;;21.52;56.38;99941.97;10290286;28;20134;-74
2023/08/23 00:09:21;;;;;;;61.20;8.23;;;;;;;21.53;57.15;99956.31;10290633;28;20601;-74
2023/08/23 00:14:22;;;;;;;46.70;7.95;;;;;;;21.46;57.22;99969.19;10290103;28;20503;-74
2023/08/23 00:19:23;;;;;;;38.05;6.82;;;;;;;21.10;57.02;99903.81;10273279;28;20043;-74
2023/08/23 00:24:24;;;;;;;29.38;6.88;;;;;;;21.63;56.43;99967.28;10290467;28;20042;-74
2023/08/23 00:29:24;;;;;;;35.97;8.18;;;;;;;21.67;55.73;99962.19;10290842;28;20455;-74
2023/08/23 00:34:25;;;;;;;32.22;6.70;;;;;;;21.15;56.62;99888.50;10289773;28;20042;-75
2023/08/23 00:39:26;;;;;;;19.23;6.25;;;;;;;21.32;57.05;99958.69;10295190;28;20129;-74
2023/08/23 00:44:27;;;;;;;14.35;6.05;;;;;;;20.59;57.35;99874.16;10296747;28;20192;-74
2023/08/23 00:49:33;;;;;;;22.77;5.65;;;;;;;20.97;57.13;99951.69;10297805;28;20050;-75
2023/08/23 00:54:34;;;;;;;12.52;5.70;;;;;;;20.73;57.20;99902.44;10296393;28;20035;-75
2023/08/23 00:59:36;;;;;;;15.75;5.50;;;;;;;21.05;56.89;99963.94;10296250;28;20414;-74
2023/08/23 01:04:36;;;;;;;11.85;5.57;;;;;;;20.80;57.65;99948.19;10296497;28;20066;-75
2023/08/23 01:10:08;;;;;;;15.95;5.93;;;;;;;20.86;59.38;99963.38;10296947;28;20411;-74
2023/08/23 01:15:13;;;;;;;22.65;6.47;;;;;;;20.75;58.72;99965.09;10295649;28;20054;-74
2023/08/23 01:20:15;;;;;;;31.10;6.43;;;;;;;20.30;58.76;99898.44;10295501;28;20103;-74
2023/08/23 01:25:16;;;;;;;13.73;6.18;;;;;;;20.58;58.56;99955.34;10295332;28;20109;-75
2023/08/23 01:30:18;;;;;;;58.10;7.50;;;;;;;20.42;59.92;99946.94;10295692;28;20041;-74
2023/08/23 01:35:44;;;;;;;62.92;9.43;;;;;;;20.42;61.19;99954.22;10277997;28;20560;-74
2023/08/23 01:40:45;;;;;;;52.38;8.45;;;;;;;20.46;60.90;99977.78;10284157;28;20409;-74
2023/08/23 01:45:45;;;;;;;85.35;10.68;;;;;;;20.29;61.33;99947.25;10294416;28;20070;-74
2023/08/23 01:50:47;;;;;;;162.32;16.52;;;;;;;20.28;61.80;99967.19;10293848;28;20074;-74
2023/08/23 01:55:48;;;;;;;76.70;11.07;;;;;;;20.16;62.26;99959.16;10294479;28;20050;-74
2023/08/23 02:00:49;;;;;;;83.55;10.25;;;;;;;20.16;61.98;99977.19;10293879;28;20045;-75
2023/08/23 02:05:49;;;;;;;200.20;16.80;;;;;;;19.63;62.26;99890.16;10276173;28;20057;-74
2023/08/23 02:10:50;;;;;;;85.50;13.00;;;;;;;19.75;62.09;99909.00;10293944;28;20135;-74
2023/08/23 02:15:51;;;;;;;113.95;12.15;;;;;;;20.14;62.37;99985.53;10293258;28;20046;-74
2023/08/23 02:20:58;;;;;;;114.75;14.50;;;;;;;19.98;63.72;99967.41;10293881;28;20101;-74
2023/08/23 02:25:59;;;;;;;55.75;9.23;;;;;;;19.91;63.21;99962.16;10275912;28;20089;-75
2023/08/23 02:31:03;;;;;;;31.00;9.02;;;;;;;20.12;62.82;99993.03;10275955;28;20093;-74
2023/08/23 02:36:04;;;;;;;59.42;11.35;;;;;;;20.16;62.96;99994.22;10292987;28;20034;-74
2023/08/23 02:41:05;;;;;;;91.22;11.57;;;;;;;20.05;63.32;99968.91;10292677;28;20043;-75
2023/08/23 02:46:06;;;;;;;164.00;17.08;;;;;;;20.22;63.39;99979.78;10292501;28;20050;-75
2023/08/23 02:51:06;;;;;;;69.28;11.70;;;;;;;20.32;63.37;99981.84;10292406;28;20414;-75
2023/08/23 02:56:07;;;;;;;45.65;9.50;;;;;;;20.59;63.30;99978.59;10274795;28;20038;-74
2023/08/23 03:01:08;;;;;;;105.45;14.32;;;;;;;20.50;63.18;99929.56;10289813;28;20047;-74
2023/08/23 03:06:08;;;;;;;175.82;18.17;;;;;;;21.18;63.14;100000.63;10293023;28;20073;-74
2023/08/23 03:11:09;;;;;;;281.90;24.60;;;;;;;21.67;62.84;100013.53;10292538;28;20046;-74
2023/08/23 03:16:10;;;;;;;158.30;17.80;;;;;;;22.24;62.23;99989.66;10292296;28;20086;-75
2023/08/23 03:21:11;;;;;;;412.25;30.98;;;;;;;23.18;60.73;99998.41;10290656;28;20511;-75
2023/08/23 03:26:12;;;;;;;83.32;12.25;;;;;;;23.56;58.80;99932.25;10291478;28;20046;-75
2023/08/23 03:31:12;;;;;;;51.53;10.13;;;;;;;24.69;57.39;100011.38;10291549;28;20108;-75
2023/08/23 03:36:13;;;;;;;86.90;12.75;;;;;;;24.83;56.13;99909.25;10290841;28;20038;-75
2023/08/23 03:41:14;;;;;;;32.67;9.02;;;;;;;25.98;54.15;99982.97;10290875;28;20384;-75
2023/08/23 03:46:15;;;;;;;20.77;8.40;;;;;;;26.89;52.50;100005.31;10290333;28;20415;-75
2023/08/23 03:51:16;;;;;;;32.35;8.85;;;;;;;27.28;50.98;99976.09;10291084;28;20062;-75
2023/08/23 03:56:17;;;;;;;89.63;12.63;;;;;;;27.79;50.23;100020.31;10291054;28;20046;-75
2023/08/23 04:01:18;;;;;;;25.25;8.50;;;;;;;27.71;49.60;99964.44;10290807;28;20043;-76
2023/08/23 04:06:18;;;;;;;27.70;8.65;;;;;;;28.01;48.88;100006.16;10285311;28;20051;-74
2023/08/23 04:11:19;;;;;;;31.55;7.88;;;;;;;27.82;48.45;99951.50;10275532;28;20518;-75
2023/08/23 04:16:20;;;;;;;28.75;8.38;;;;;;;28.35;47.58;100006.78;10296902;28;20045;-75
2023/08/23 04:21:21;;;;;;;27.60;8.13;;;;;;;29.00;46.93;100010.75;10277539;28;20065;-74
2023/08/23 04:26:21;;;;;;;20.88;7.22;;;;;;;29.70;45.45;100015.28;10297735;28;20057;-74
2023/08/23 04:31:22;;;;;;;26.55;6.75;;;;;;;30.30;44.02;100004.22;10296527;28;20038;-75
2023/08/23 04:36:23;;;;;;;22.50;7.32;;;;;;;30.85;43.98;100012.28;10279188;28;20050;-74
2023/08/23 04:41:24;;;;;;;17.48;5.88;;;;;;;31.15;41.97;100007.97;10294107;28;20047;-75
2023/08/23 04:46:25;;;;;;;24.42;7.47;;;;;;;31.44;41.69;100011.38;10295149;28;20070;-74
2023/08/23 04:51:26;;;;;;;15.63;6.28;;;;;;;31.38;40.65;99978.59;10296810;28;20039;-76
2023/08/23 04:56:27;;;;;;;16.70;5.65;;;;;;;31.50;40.10;100018.34;10296377;28;20043;-74
2023/08/23 05:01:28;;;;;;;19.70;6.28;;;;;;;31.27;40.62;100009.34;10296755;28;20137;-74
2023/08/23 05:06:28;;;;;;;22.05;5.88;;;;;;;31.00;41.08;100010.31;10296652;28;20073;-74
2023/08/23 05:11:29;;;;;;;15.50;6.25;;;;;;;30.85;41.01;100004.06;10296512;28;20043;-74
2023/08/23 05:16:30;;;;;;;20.80;6.15;;;;;;;30.92;40.67;99998.94;10295543;28;20056;-74
2023/08/23 05:21:30;;;;;;;25.25;5.47;;;;;;;31.17;40.96;99999.41;10294966;28;20067;-74
2023/08/23 05:26:31;;;;;;;19.80;5.32;;;;;;;31.29;40.49;100010.66;10295772;28;20043;-74
2023/08/23 05:31:32;;;;;;;13.65;5.53;;;;;;;31.44;39.49;99992.16;10295005;28;20114;-74
2023/08/23 05:36:33;;;;;;;29.30;5.72;;;;;;;31.37;38.52;99971.47;10296054;28;20038;-73
2023/08/23 05:41:33;;;;;;;22.73;6.38;;;;;;;31.44;38.76;99949.06;10295037;28;20042;-74
2023/08/23 05:46:34;;;;;;;13.65;6.60;;;;;;;31.82;38.39;99984.22;10295454;28;20101;-73
2023/08/23 05:51:35;;;;;;;10.85;6.57;;;;;;;31.76;38.09;99938.81;10294225;28;20039;-73
2023/08/23 05:56:35;;;;;;;17.77;6.57;;;;;;;32.15;37.62;99992.09;10295332;28;20048;-73
2023/08/23 06:01:36;;;;;;;19.00;6.38;;;;;;;32.14;37.59;99988.53;10294230;28;20046;-74
2023/08/23 06:06:37;;;;;;;17.20;5.72;;;;;;;32.25;36.68;99981.59;10294157;28;20407;-74
2023/08/23 06:11:37;;;;;;;11.38;6.05;;;;;;;32.41;36.30;99967.38;10293478;28;20494;-73
2023/08/23 06:16:38;;;;;;;10.23;6.32;;;;;;;32.50;35.40;99977.25;10294193;28;20039;-74
2023/08/23 06:21:40;;;;;;;12.70;6.20;;;;;;;32.58;35.46;99956.41;10293650;28;20062;-74
2023/08/23 06:26:43;;;;;;;9.82;6.35;;;;;;;32.71;35.30;99955.41;10292920;28;20515;-73
2023/08/23 06:31:44;;;;;;;20.75;7.07;;;;;;;32.67;35.42;99956.41;10293332;28;20042;-73
2023/08/23 06:36:45;;;;;;;15.48;6.22;;;;;;;32.79;34.92;99958.47;10292568;28;20090;-73
2023/08/23 06:41:46;;;;;;;11.40;5.72;;;;;;;33.09;34.37;99951.16;10292673;28;20050;-74
2023/08/23 06:46:46;;;;;;;10.38;6.40;;;;;;;33.33;33.95;99950.59;10292789;28;20129;-74
2023/08/23 06:51:47;;;;;;;10.23;5.90;;;;;;;33.54;33.47;99947.94;10292076;28;20046;-73
2023/08/23 06:56:48;;;;;;;16.50;5.25;;;;;;;33.18;32.46;99889.44;10291914;28;20042;-73
2023/08/23 07:01:48;;;;;;;22.23;6.95;;;;;;;33.33;32.14;99884.53;10292237;28;20085;-72
2023/08/23 07:06:49;;;;;;;7.70;4.93;;;;;;;33.79;31.87;99943.41;10292117;28;20050;-73
2023/08/23 07:11:50;;;;;;;11.43;4.13;;;;;;;33.71;30.73;99901.00;10291443;28;20058;-73
2023/08/23 07:16:51;;;;;;;13.82;4.32;;;;;;;34.00;29.63;99930.47;10291775;28;20050;-72
2023/08/23 07:21:51;;;;;;;7.88;4.05;;;;;;;34.25;29.73;99927.88;10292011;28;20062;-73
2023/08/23 07:26:55;;;;;;;8.35;4.70;;;;;;;34.30;30.17;99911.13;10291100;28;20051;-73
2023/08/23 07:31:55;;;;;;;10.98;4.43;;;;;;;34.06;29.13;99871.28;10291015;28;20042;-73
2023/08/23 07:36:56;;;;;;;10.88;5.00;;;;;;;34.37;29.33;99916.09;10291577;28;20093;-73
2023/08/23 07:41:57;;;;;;;12.27;5.00;;;;;;;34.29;29.79;99895.72;10291610;28;20089;-73
2023/08/23 07:46:57;;;;;;;14.95;4.63;;;;;;;34.40;29.36;99899.66;10277804;28;20043;-72
2023/08/23 07:51:58;;;;;;;8.65;4.10;;;;;;;34.36;28.47;99862.91;10299278;28;20402;-73
2023/08/23 07:56:59;;;;;;;21.10;5.43;;;;;;;34.62;27.99;99881.16;10298565;28;20041;-73
2023/08/23 08:02:00;;;;;;;9.38;3.75;;;;;;;34.78;28.00;99886.84;10299150;28;20069;-74
2023/08/23 08:07:00;;;;;;;11.43;3.97;;;;;;;34.74;27.90;99881.19;10299409;28;20118;-74
2023/08/23 08:12:01;;;;;;;10.30;3.47;;;;;;;34.75;27.69;99871.78;10297934;28;20051;-73
2023/08/23 08:17:02;;;;;;;5.38;3.17;;;;;;;34.84;27.39;99869.72;10298372;28;20046;-74
2023/08/23 08:22:03;;;;;;;11.38;2.90;;;;;;;34.91;26.52;99863.63;10297634;28;20070;-74
2023/08/23 08:27:03;;;;;;;15.18;2.80;;;;;;;34.51;26.31;99811.81;10297685;28;20556;-73
2023/08/23 08:32:04;;;;;;;10.65;2.92;;;;;;;34.58;26.08;99812.06;10297877;28;20129;-74
2023/08/23 08:37:06;;;;;;;7.13;2.70;;;;;;;34.74;25.55;99832.34;10297171;28;20046;-74
2023/08/23 08:42:08;;;;;;;8.18;2.70;;;;;;;34.97;25.58;99862.25;10297252;28;20495;-74
2023/08/23 08:47:09;;;;;;;;;;;;;;;35.27;25.93;99849.06;10280867;28;20177;-74
2023/08/23 08:52:13;;;;;;;6.65;2.15;;;;;;;35.12;24.04;99835.94;10297117;28;20072;-74
2023/08/23 08:57:15;;;;;;;5.72;2.55;;;;;;;35.07;24.33;99831.47;10278717;28;20093;-74
2023/08/23 09:02:18;;;;;;;5.43;2.40;;;;;;;35.42;24.42;99845.59;10296212;28;20082;-75
2023/08/23 09:07:19;;;;;;;15.10;2.50;;;;;;;35.50;24.58;99835.56;10279242;28;20043;-74
2023/08/23 09:12:20;;;;;;;10.90;2.83;;;;;;;35.44;24.45;99825.91;10296704;28;20043;-74
2023/08/23 09:17:25;;;;;;;14.15;2.85;;;;;;;35.40;24.45;99841.56;10295657;28;20087;-75
2023/08/23 09:22:26;;;;;;;8.77;2.60;;;;;;;35.42;25.22;99823.50;10296019;28;20153;-75
2023/08/23 09:27:27;;;;;;;40.05;3.90;;;;;;;35.65;25.26;99820.25;10295630;28;20484;-74
2023/08/23 09:32:28;;;;;;;9.27;2.85;;;;;;;35.35;25.19;99767.25;10295852;28;20092;-75
2023/08/23 09:37:29;;;;;;;8.75;3.20;;;;;;;35.65;25.14;99809.22;10295998;28;20157;-74
2023/08/23 09:42:32;;;;;;;12.55;3.20;;;;;;;35.65;25.11;99792.63;10294371;28;20042;-74
2023/08/23 09:47:34;;;;;;;7.93;3.40;;;;;;;35.84;24.92;99814.09;10277628;28;20487;-74
2023/08/23 09:52:37;;;;;;;5.63;3.33;;;;;;;35.82;25.49;99813.66;10294349;28;20499;-74
2023/08/23 09:57:38;;;;;;;9.85;3.40;;;;;;;35.86;25.65;99812.59;10294978;28;20086;-74
2023/08/23 10:02:41;;;;;;;9.27;3.78;;;;;;;35.89;25.82;99797.28;10291136;28;20133;-75
2023/08/23 10:07:42;;;;;;;8.15;3.78;;;;;;;35.54;25.50;99742.63;10293575;28;20047;-74
2023/08/23 10:12:46;;;;;;;13.48;4.13;;;;;;;35.95;25.89;99795.06;10291690;28;20049;-75
2023/08/23 10:17:48;;;;;;;10.38;4.07;;;;;;;35.86;25.96;99795.22;10306694;28;20399;-74
2023/08/23 10:22:52;;;;;;;;;;;;;;;36.21;25.62;99791.88;10325187;28;20084;-75
2023/08/23 10:27:55;;;;;;;12.95;3.78;;;;;;;36.00;26.13;99783.75;10321964;28;20013;-74
2023/08/23 10:33:17;;;;;;;12.18;4.57;;;;;;;36.42;27.55;99775.03;10330329;28;20042;-75
2023/08/23 10:38:18;;;;;;;22.77;4.90;;;;;;;36.34;26.17;99766.53;10328317;28;20042;-76
2023/08/23 10:43:20;;;;;;;9.60;4.30;;;;;;;36.23;26.34;99776.53;10324252;28;20466;-76
2023/08/23 10:48:22;;;;;;;9.38;4.72;;;;;;;36.07;26.83;99756.31;10332190;28;20127;-75
2023/08/23 10:53:24;;;;;;;7.57;4.50;;;;;;;36.24;26.98;99747.72;10332221;28;20129;-72
2023/08/23 10:58:24;;;;;;;;;;;;;;;36.88;26.82;99759.59;10331188;28;20042;-73
2023/08/23 11:03:28;;;;;;;12.27;5.00;;;;;;;36.07;27.08;99759.09;10324416;28;19924;-73
2023/08/23 11:08:30;;;;;;;14.23;4.65;;;;;;;35.55;27.51;99699.22;10329606;28;20042;-73
2023/08/23 11:13:31;;;;;;;8.43;4.57;;;;;;;35.53;27.83;99685.72;10329255;28;20038;-73
2023/08/23 11:18:31;;;;;;;12.15;4.80;;;;;;;35.38;28.35;99753.53;10318962;28;20045;-72
2023/08/23 11:23:36;;;;;;;9.55;4.60;;;;;;;35.43;28.91;99753.31;10321593;28;20058;-73
2023/08/23 11:28:37;;;;;;;14.75;4.75;;;;;;;35.09;28.60;99690.34;10329813;28;20088;-74
2023/08/23 11:33:38;;;;;;;9.32;4.85;;;;;;;35.40;28.38;99697.97;10329857;28;20030;-75
2023/08/23 11:38:40;;;;;;;10.00;4.70;;;;;;;35.56;28.53;99692.53;10331432;28;20042;-74
2023/08/23 11:43:44;;;;;;;15.00;4.97;;;;;;;36.03;28.01;99755.41;10330903;28;20042;-75
2023/08/23 11:48:45;;;;;;;27.15;6.47;;;;;;;36.07;29.11;99743.31;10331513;28;20053;-75
2023/08/23 11:53:52;;;;;;;16.23;5.68;;;;;;;36.08;30.19;99749.66;10331025;28;20086;-75
2023/08/23 11:58:53;;;;;;;23.40;5.40;;;;;;;35.85;29.47;99733.59;10330855;28;20042;-75
2023/08/23 12:03:54;;;;;;;10.32;4.82;;;;;;;35.89;29.85;99731.72;10331160;28;20053;-74
2023/08/23 12:08:55;;;;;;;11.13;5.45;;;;;;;35.72;30.60;99734.00;10331125;28;20035;-74
2023/08/23 12:13:56;;;;;;;14.48;5.78;;;;;;;35.46;30.47;99720.63;10331589;28;20047;-74
2023/08/23 12:18:57;;;;;;;17.35;5.97;;;;;;;35.43;30.65;99691.75;10311206;28;20047;-74
2023/08/23 12:23:58;;;;;;;11.10;6.28;;;;;;;35.76;30.92;99741.25;10289798;28;20059;-74
2023/08/23 12:28:58;;;;;;;18.90;6.80;;;;;;;35.44;32.16;99730.03;10290194;28;20066;-74
2023/08/23 12:33:59;;;;;;;16.30;8.45;;;;;;;35.31;32.67;99734.00;10289257;28;20049;-74
2023/08/23 12:39:00;;;;;;;38.88;7.57;;;;;;;34.87;33.23;99686.91;10280253;28;20073;-75
2023/08/23 12:44:01;;;;;;;15.63;6.22;;;;;;;34.65;33.13;99681.88;10296602;28;20109;-75
2023/08/23 12:49:02;;;;;;;12.75;6.53;;;;;;;34.71;33.58;99739.22;10294863;28;20415;-74
2023/08/23 12:54:03;;;;;;;9.03;6.17;;;;;;;34.70;33.09;99754.19;10295017;28;20050;-74
2023/08/23 12:59:04;;;;;;;14.57;5.85;;;;;;;34.88;32.26;99738.19;10295203;28;20290;-75
2023/08/23 13:04:05;;;;;;;8.47;5.70;;;;;;;34.85;32.04;99711.31;10291542;28;20410;-74
2023/08/23 13:09:06;;;;;;;11.50;6.10;;;;;;;34.86;32.52;99756.25;10295554;28;20050;-74
2023/08/23 13:14:07;;;;;;;11.63;6.55;;;;;;;34.71;32.99;99753.03;10327256;28;20525;-74
2023/08/23 13:19:08;;;;;;;13.23;6.13;;;;;;;34.37;33.19;99690.78;10334823;28;20045;-74
2023/08/23 13:24:20;;;;;;;21.08;5.88;;;;;;;34.80;32.32;99763.94;10327001;28;20050;-74
2023/08/23 13:29:21;;;;;;;13.65;6.05;;;;;;;34.73;32.38;99759.00;10333095;28;20038;-73
2023/08/23 13:34:22;;;;;;;18.92;5.88;;;;;;;34.67;32.58;99749.34;10329471;28;20050;-73
2023/08/23 13:39:23;;;;;;;32.22;6.82;;;;;;;34.52;32.43;99753.56;10332621;28;20554;-74
2023/08/23 13:44:24;;;;;;;15.38;6.03;;;;;;;34.26;32.26;99747.53;10322618;28;20054;-74
2023/08/23 13:49:25;;;;;;;9.07;5.28;;;;;;;33.98;32.31;99737.09;10319124;28;20046;-73
2023/08/23 13:54:26;;;;;;;13.25;5.90;;;;;;;34.18;32.29;99765.78;10334090;28;20504;-73
2023/08/23 13:59:26;;;;;;;11.32;5.88;;;;;;;34.02;32.58;99779.38;10332761;28;20184;-73
2023/08/23 14:04:27;;;;;;;13.68;6.30;;;;;;;33.96;32.82;99769.69;10311414;28;20053;-73
2023/08/23 14:09:28;;;;;;;19.10;5.88;;;;;;;33.30;33.14;99673.22;10294074;28;20054;-73
2023/08/23 14:14:29;;;;;;;8.23;5.68;;;;;;;33.97;33.13;99781.53;10294039;28;20171;-75
2023/08/23 14:19:31;;;;;;;17.88;6.43;;;;;;;33.76;33.21;99784.31;10294195;28;20050;-74
2023/08/23 14:24:32;;;;;;;17.95;6.60;;;;;;;33.68;33.26;99788.72;10293523;28;20043;-74
2023/08/23 14:29:33;;;;;;;11.95;6.25;;;;;;;33.51;33.67;99786.94;10275643;28;20042;-75
2023/08/23 14:34:34;;;;;;;16.02;6.20;;;;;;;33.43;33.55;99796.03;10293033;28;20046;-79
2023/08/23 14:39:35;;;;;;;25.90;7.60;;;;;;;33.28;33.82;99793.88;10293007;28;20047;-77
2023/08/23 14:44:36;;;;;;;23.50;7.13;;;;;;;33.14;33.83;99802.34;10275188;28;20565;-77
2023/08/23 14:49:37;;;;;;;15.18;7.13;;;;;;;32.98;34.02;99796.63;10292125;28;20050;-74
2023/08/23 14:54:37;;;;;;;32.67;6.97;;;;;;;32.81;34.53;99804.91;10292655;28;20513;-74
2023/08/23 14:59:40;;;;;;;15.43;6.93;;;;;;;32.58;34.64;99801.59;10292228;28;20459;-74
2023/08/23 15:04:44;;;;;;;51.08;8.57;;;;;;;32.47;35.07;99820.41;10291921;28;20050;-74
2023/08/23 15:09:49;;;;;;;94.03;11.93;;;;;;;32.25;35.35;99824.16;10292303;28;20046;-74
2023/08/23 15:14:50;;;;;;;23.83;6.50;;;;;;;31.96;35.33;99794.59;10291585;28;20101;-74
2023/08/23 15:19:50;;;;;;;48.15;8.70;;;;;;;31.87;35.74;99819.28;10291460;28;20062;-74
2023/08/23 15:24:51;;;;;;;20.77;6.45;;;;;;;31.51;36.14;99783.91;10291083;28;20047;-74
2023/08/23 15:29:52;;;;;;;12.32;5.57;;;;;;;31.17;36.11;99755.22;10291040;28;20046;-74
2023/08/23 15:34:53;;;;;;;23.17;6.80;;;;;;;31.37;36.55;99814.22;10291732;28;20057;-74
2023/08/23 15:39:55;;;;;;;20.00;6.88;;;;;;;31.36;36.55;99838.13;10291780;28;20086;-73
2023/08/23 15:44:56;;;;;;;11.00;6.63;;;;;;;30.97;36.82;99786.00;10291091;28;20050;-74
2023/08/23 15:49:57;;;;;;;39.03;7.15;;;;;;;31.01;36.83;99817.16;10290583;28;20042;-74
2023/08/23 15:54:59;;;;;;;8.38;5.93;;;;;;;30.96;36.97;99831.81;10291366;28;20050;-74
2023/08/23 16:00:00;;;;;;;14.53;6.20;;;;;;;30.60;36.89;99794.34;10290041;28;20042;-74
2023/08/23 16:05:00;;;;;;;12.80;6.05;;;;;;;30.76;37.42;99837.84;10291213;28;20298;-75
2023/08/23 16:10:01;;;;;;;22.60;6.43;;;;;;;30.56;37.48;99833.69;10296556;28;20038;-74
2023/08/23 16:15:03;;;;;;;14.13;5.65;;;;;;;30.52;38.01;99849.16;10299167;28;20447;-74
2023/08/23 16:20:06;;;;;;;26.23;7.00;;;;;;;30.38;38.43;99854.69;10293485;28;20055;-74
2023/08/23 16:25:07;;;;;;;18.13;6.18;;;;;;;30.20;38.66;99848.25;10298363;28;20062;-75
2023/08/23 16:30:08;;;;;;;14.35;6.07;;;;;;;30.12;38.76;99851.72;10299914;28;20066;-74
2023/08/23 16:35:10;;;;;;;22.50;6.20;;;;;;;29.70;39.40;99819.00;10297339;28;20042;-75
2023/08/23 16:40:11;;;;;;;22.98;5.97;;;;;;;29.92;39.47;99881.22;10300560;28;20038;-75
2023/08/23 16:45:13;;;;;;;29.90;6.35;;;;;;;29.46;40.64;99843.06;10335901;28;20046;-75
2023/08/23 16:50:14;;;;;;;25.90;6.40;;;;;;;29.54;41.32;99892.41;10336611;28;20044;-74
2023/08/23 16:55:15;;;;;;;28.55;6.15;;;;;;;28.92;42.37;99836.44;10326341;28;20056;-75
2023/08/23 17:00:16;;;;;;;19.20;6.57;;;;;;;29.17;42.39;99903.53;10336175;28;20038;-74
2023/08/23 17:05:18;;;;;;;22.55;6.35;;;;;;;28.98;43.62;99901.66;10335329;28;20046;-75
2023/08/23 17:10:19;;;;;;;15.23;6.68;;;;;;;29.01;43.98;99922.94;10335517;28;20073;-74
2023/08/23 17:15:20;;;;;;;13.75;6.68;;;;;;;28.26;44.40;99808.34;10321727;28;20042;-74
2023/08/23 17:20:21;;;;;;;32.92;7.88;;;;;;;28.89;44.86;99922.59;10293566;28;20059;-75
2023/08/23 17:25:22;;;;;;;19.00;7.13;;;;;;;28.87;44.62;99928.41;10294299;28;20046;-75
2023/08/23 17:30:23;;;;;;;16.20;7.18;;;;;;;28.79;44.98;99929.06;10295466;28;20039;-76
2023/08/23 17:35:24;;;;;;;18.90;8.50;;;;;;;28.66;44.80;99913.47;10295392;28;20055;-74
2023/08/23 17:40:24;;;;;;;19.58;8.10;;;;;;;28.55;45.25;99914.72;10295195;28;20043;-75
2023/08/23 17:45:26;;;;;;;33.30;8.60;;;;;;;28.56;46.41;99944.47;10294362;28;20498;-75
2023/08/23 17:50:27;;;;;;;26.10;7.65;;;;;;;28.37;46.90;99949.13;10294923;28;20073;-72
2023/08/23 17:55:28;;;;;;;18.30;7.20;;;;;;;28.26;47.00;99958.56;10293534;28;20391;-72
2023/08/23 18:00:28;;;;;;;17.58;5.80;;;;;;;28.21;45.23;99963.00;10294962;28;20047;-72
2023/08/23 18:05:29;;;;;;;16.52;5.25;;;;;;;28.16;43.08;99954.06;10294295;28;20046;-75
2023/08/23 18:10:30;;;;;;;14.88;4.55;;;;;;;27.80;41.91;99912.78;10294473;28;20069;-75
2023/08/23 18:15:31;;;;;;;16.73;4.25;;;;;;;28.14;40.82;99962.53;10276755;28;20137;-75
2023/08/23 18:20:32;;;;;;;9.40;3.70;;;;;;;27.95;40.10;99935.22;10293357;28;20051;-75
2023/08/23 18:25:33;;;;;;;13.77;3.83;;;;;;;28.02;40.30;99969.56;10294125;28;20053;-75
2023/08/23 18:30:36;;;;;;;8.73;3.42;;;;;;;27.96;40.07;99971.53;10293219;28;20038;-75
2023/08/23 18:35:38;;;;;;;30.45;5.78;;;;;;;28.01;40.39;99990.59;10293459;28;20039;-77
2023/08/23 18:40:38;;;;;;;14.48;4.85;;;;;;;27.74;40.58;99964.66;10292930;28;20049;-76
2023/08/23 18:45:40;;;;;;;17.50;4.20;;;;;;;27.70;41.50;99988.19;10292735;28;20049;-76
2023/08/23 18:50:41;;;;;;;25.98;4.85;;;;;;;26.96;42.34;99910.41;10292323;28;20558;-76
2023/08/23 18:55:42;;;;;;;15.63;4.45;;;;;;;26.79;42.40;99938.88;10292126;28;20170;-76
2023/08/23 19:00:42;;;;;;;22.08;4.07;;;;;;;26.84;42.79;99973.47;10292990;28;20447;-75
2023/08/23 19:05:44;;;;;;;20.27;4.15;;;;;;;26.69;44.02;99982.56;10291232;28;20046;-75
2023/08/23 19:10:46;;;;;;;17.58;3.88;;;;;;;26.51;44.04;99970.44;10291821;28;20051;-75
2023/08/23 19:15:47;;;;;;;12.27;3.83;;;;;;;26.57;45.07;100003.91;10292111;28;20047;-74
2023/08/23 19:20:50;;;;;;;66.57;6.53;;;;;;;26.42;46.31;99999.34;10292480;28;20069;-73
2023/08/23 19:25:51;;;;;;;24.73;3.83;;;;;;;26.22;45.85;99986.66;10290995;28;20447;-74
2023/08/23 19:30:52;;;;;;;17.38;4.47;;;;;;;26.06;46.88;99990.56;10290345;28;20125;-74
2023/08/23 19:35:53;;;;;;;11.32;4.03;;;;;;;25.94;47.33;100002.56;10265208;28;20038;-73
2023/08/23 19:40:54;;;;;;;14.10;4.10;;;;;;;25.63;48.67;99999.09;10290043;28;20118;-75
2023/08/23 19:45:55;;;;;;;64.10;5.85;;;;;;;25.35;49.60;99991.56;10299801;28;20118;-74
2023/08/23 19:50:57;;;;;;;22.60;4.70;;;;;;;25.02;50.58;99978.22;10298010;28;20047;-75
2023/08/23 19:56:00;;;;;;;29.95;6.13;;;;;;;24.99;52.06;100010.56;10299291;28;20136;-75
2023/08/23 20:01:01;;;;;;;23.30;6.30;;;;;;;24.84;52.72;100003.22;10299404;28;20042;-75
2023/08/23 20:06:04;;;;;;;21.05;6.53;;;;;;;24.57;52.40;99977.13;10298461;28;20051;-75
2023/08/23 20:11:06;;;;;;;20.65;6.03;;;;;;;24.50;52.24;99990.16;10299112;28;20066;-75
2023/08/23 20:16:07;;;;;;;28.55;5.63;;;;;;;24.44;53.56;99995.81;10280624;28;20051;-75
2023/08/23 20:21:08;;;;;;;16.77;5.47;;;;;;;24.24;53.44;100002.00;10297991;28;20066;-74
2023/08/23 20:26:09;;;;;;;16.48;4.65;;;;;;;24.26;53.72;100007.97;10297770;28;20053;-75
2023/08/23 20:31:09;;;;;;;13.40;4.65;;;;;;;24.05;54.75;100002.50;10297342;28;20414;-75
2023/08/23 20:36:10;;;;;;;8.85;4.55;;;;;;;23.13;54.78;99876.47;10298501;28;20061;-74
2023/08/23 20:41:12;;;;;;;13.57;4.28;;;;;;;23.20;55.37;99921.22;10297066;28;20149;-75
2023/08/23 20:46:12;;;;;;;16.58;4.68;;;;;;;23.46;55.57;99959.31;10297757;28;20039;-75
2023/08/23 20:51:13;;;;;;;13.02;4.32;;;;;;;23.70;55.92;100000.41;10297526;28;20039;-75
2023/08/23 20:56:14;;;;;;;26.45;5.55;;;;;;;23.48;56.68;99986.97;10295189;28;20043;-75
2023/08/23 21:01:16;;;;;;;67.65;6.07;;;;;;;23.49;56.70;99994.03;10296474;28;20045;-75
2023/08/23 21:06:16;;;;;;;21.83;4.60;;;;;;;22.91;57.18;99922.59;10296372;28;20049;-74
2023/08/23 21:11:17;;;;;;;13.65;4.05;;;;;;;23.28;57.52;100001.22;10296569;28;20050;-75
2023/08/23 21:16:18;;;;;;;22.17;3.97;;;;;;;23.04;57.64;99994.53;10296406;28;20134;-75
2023/08/23 21:21:19;;;;;;;14.88;4.07;;;;;;;22.96;58.24;100004.75;10278701;28;20082;-75
2023/08/23 21:26:20;;;;;;;14.38;4.43;;;;;;;22.83;58.44;100001.63;10295593;28;20054;-75
2023/08/23 21:31:21;;;;;;;13.35;4.13;;;;;;;22.82;58.72;99989.16;10279032;28;20101;-75
2023/08/23 21:36:22;;;;;;;22.50;4.13;;;;;;;22.29;58.60;99911.25;10295743;28;20130;-75
2023/08/23 21:41:22;;;;;;;14.55;4.00;;;;;;;22.41;58.67;99934.66;10295446;28;20130;-75
2023/08/23 21:46:23;;;;;;;12.73;4.85;;;;;;;22.69;59.04;99983.09;10295250;28;20082;-74
2023/08/23 21:51:25;;;;;;;15.48;4.45;;;;;;;22.60;60.07;99992.75;10278357;28;20077;-75
2023/08/23 21:56:26;;;;;;;32.67;4.90;;;;;;;22.05;60.30;99909.91;10294374;28;20129;-75
2023/08/23 22:01:27;;;;;;;29.90;4.88;;;;;;;22.42;60.43;99976.88;10293868;28;20065;-74
2023/08/23 22:06:29;;;;;;;30.23;5.03;;;;;;;22.02;60.90;99918.53;10293658;28;20045;-75
2023/08/23 22:11:30;;;;;;;27.05;5.28;;;;;;;22.33;60.95;99977.31;10276599;28;20047;-74
2023/08/23 22:16:31;;;;;;;35.28;6.00;;;;;;;21.99;60.95;99911.75;10293759;28;20042;-75
2023/08/23 22:21:32;;;;;;;8.98;3.92;;;;;;;22.26;61.39;99970.50;10293666;28;20118;-75
2023/08/23 22:26:33;;;;;;;12.35;3.83;;;;;;;22.29;61.40;99978.91;10293181;28;20093;-74
2023/08/23 22:31:36;;;;;;;11.27;4.13;;;;;;;22.17;62.39;99962.00;10293641;28;20042;-75
2023/08/23 22:36:37;;;;;;;;;;;;;;;22.55;60.31;99984.56;10293045;28;20038;-74
2023/08/23 22:41:38;;;;;;;15.80;3.80;;;;;;;22.23;61.21;99993.47;10292907;28;19928;-75
2023/08/23 22:46:38;;;;;;;19.80;4.50;;;;;;;22.02;61.84;99976.13;10292462;28;20159;-75
2023/08/23 22:51:39;;;;;;;37.60;5.80;;;;;;;21.66;62.02;99939.75;10292146;28;20042;-75
2023/08/23 22:56:40;;;;;;;29.25;4.40;;;;;;;21.78;61.76;99969.34;10293109;28;20039;-74
2023/08/23 23:01:41;;;;;;;13.32;3.78;;;;;;;21.86;61.66;99983.22;10292335;28;20042;-75
2023/08/23 23:06:42;;;;;;;22.83;4.05;;;;;;;21.98;61.51;99993.94;10291864;28;20039;-74